Time,TemperatureF,DewpointF,PressureIn,WindDirection,WindDirectionDegrees,WindSpeedMPH,WindSpeedGustMPH,Humidity,HourlyPrecipIn,Conditions,Clouds,dailyrainin,SolarRadiationWatts/m^2,SoftwareType,DateUTC
2013-02-06 00:00:00,46.7,43.2,29.82,SSW,213,0.0,0.7,87,0.00,,,-99.99,1.0,HOBO +U30 +Weather +,2013-02-06 08:00:00,
2013-02-06 00:05:00,46.6,43.1,29.82,SSW,204,0.0,0.0,87,0.00,,,-99.99,1.0,HOBO +U30 +Weather +,2013-02-06 08:05:00,
2013-02-06 00:10:00,46.1,42.6,29.82,SSW,204,0.0,0.0,87,0.00,,,-99.99,1.0,HOBO +U30 +Weather +,2013-02-06 08:10:00,
2013-02-06 00:15:00,46.6,43.1,29.82,SW,232,0.0,4.0,87,0.00,,,-99.99,1.0,HOBO +U30 +Weather +,2013-02-06 08:15:00,
2013-02-06 00:20:00,46.7,42.5,29.82,North,354,0.0,3.4,85,0.00,,,-99.99,1.0,HOBO +U30 +Weather +,2013-02-06 08:20:00,
2013-02-06 00:25:00,46.6,42.4,29.82,NNE,15,0.0,2.9,85,0.00,,,-99.99,1.0,HOBO +U30 +Weather +,2013-02-06 08:25:00,
2013-02-06 00:30:00,47.0,43.0,29.82,NNE,18,1.8,7.4,85,0.00,,,-99.99,1.0,HOBO +U30 +Weather +,2013-02-06 08:30:00,
2013-02-06 00:35:00,46.6,42.6,29.82,North,355,0.0,2.9,85,0.00,,,-99.99,1.0,HOBO +U30 +Weather +,2013-02-06 08:35:00,
2013-02-06 00:40:00,46.3,42.3,29.82,North,355,0.7,4.5,86,0.00,,,-99.99,1.0,HOBO +U30 +Weather +,2013-02-06 08:40:00,
2013-02-06 00:45:00,46.7,42.9,29.82,NNW,348,0.7,4.5,86,0.00,,,-99.99,1.0,HOBO +U30 +Weather +,2013-02-06 08:45:00,
2013-02-06 00:50:00,46.7,42.8,29.81,NNW,347,0.7,4.0,85,0.00,,,-99.99,1.0,HOBO +U30 +Weather +,2013-02-06 08:50:00,
2013-02-06 00:55:00,46.5,42.5,29.81,North,350,0.0,2.9,85,0.00,,,-99.99,1.0,HOBO +U30 +Weather +,2013-02-06 08:55:00,
2013-02-06 01:00:00,46.5,42.4,29.81,NNW,343,0.0,6.3,85,0.00,,,-99.99,1.0,HOBO +U30 +Weather +,2013-02-06 09:00:00,
2013-02-06 01:05:00,46.5,42.3,29.81,North,351,0.7,4.5,85,0.00,,,-99.99,1.0,HOBO +U30 +Weather +,2013-02-06 09:05:00,
2013-02-06 01:10:00,46.3,42.1,29.81,North,354,0.0,1.8,85,0.00,,,-99.99,1.0,HOBO +U30 +Weather +,2013-02-06 09:10:00,
2013-02-06 01:15:00,46.2,42.3,29.81,North,355,0.0,3.4,86,0.00,,,-99.99,1.0,HOBO +U30 +Weather +,2013-02-06 09:15:00,
2013-02-06 01:20:00,46.0,42.2,29.81,NNW,347,0.0,4.5,86,0.00,,,-99.99,1.0,HOBO +U30 +Weather +,2013-02-06 09:20:00,
2013-02-06 01:25:00,45.9,42.2,29.81,NNW,345,0.0,2.2,86,0.00,,,-99.99,1.0,HOBO +U30 +Weather +,2013-02-06 09:25:00,
2013-02-06 01:30:00,45.8,42.2,29.81,North,350,0.0,3.4,86,0.00,,,-99.99,1.0,HOBO +U30 +Weather +,2013-02-06 09:30:00,
2013-02-06 01:35:00,45.7,42.2,29.81,NW,323,0.0,2.9,87,0.00,,,-99.99,1.0,HOBO +U30 +Weather +,2013-02-06 09:35:00,
2013-02-06 01:40:00,45.6,42.2,29.82,WNW,296,0.0,0.7,87,0.00,,,-99.99,1.0,HOBO +U30 +Weather +,2013-02-06 09:40:00,
2013-02-06 01:45:00,45.5,42.2,29.81,NW,314,0.0,0.7,88,0.00,,,-99.99,1.0,HOBO +U30 +Weather +,2013-02-06 09:45:00,
2013-02-06 01:50:00,45.2,42.0,29.81,NW,324,0.0,0.0,88,0.00,,,-99.99,1.0,HOBO +U30 +Weather +,2013-02-06 09:50:00,
2013-02-06 01:55:00,45.0,41.9,29.82,NW,324,0.0,0.0,88,0.00,,,-99.99,1.0,HOBO +U30 +Weather +,2013-02-06 09:55:00,
2013-02-06 02:00:00,45.1,42.1,29.82,NNW,331,0.0,0.7,89,0.00,,,-99.99,1.0,HOBO +U30 +Weather +,2013-02-06 10:00:00,
2013-02-06 02:05:00,45.2,42.2,29.82,NNW,348,0.0,0.0,89,0.00,,,-99.99,1.0,HOBO +U30 +Weather +,2013-02-06 10:05:00,
2013-02-06 02:10:00,45.1,42.1,29.82,North,352,0.0,1.1,89,0.00,,,-99.99,1.0,HOBO +U30 +Weather +,2013-02-06 10:10:00,
2013-02-06 02:15:00,44.9,41.9,29.82,North,354,0.0,0.0,89,0.00,,,-99.99,1.0,HOBO +U30 +Weather +,2013-02-06 10:15:00,
2013-02-06 02:20:00,44.9,41.9,29.82,North,351,0.0,0.7,89,0.00,,,-99.99,1.0,HOBO +U30 +Weather +,2013-02-06 10:20:00,
2013-02-06 02:25:00,45.1,41.9,29.82,NNW,337,0.0,3.4,88,0.00,,,-99.99,1.0,HOBO +U30 +Weather +,2013-02-06 10:25:00,
2013-02-06 02:30:00,45.3,41.9,29.81,North,350,0.0,1.8,88,0.00,,,-99.99,1.0,HOBO +U30 +Weather +,2013-02-06 10:30:00,
2013-02-06 02:35:00,45.1,41.7,29.81,NNW,344,0.0,1.1,87,0.00,,,-99.99,1.0,HOBO +U30 +Weather +,2013-02-06 10:35:00,
2013-02-06 02:40:00,45.0,41.7,29.81,NNW,341,0.0,0.0,87,0.00,,,-99.99,1.0,HOBO +U30 +Weather +,2013-02-06 10:40:00,
2013-02-06 02:45:00,45.0,41.7,29.81,NNW,345,0.0,1.1,87,0.00,,,-99.99,1.0,HOBO +U30 +Weather +,2013-02-06 10:45:00,
2013-02-06 02:50:00,44.5,41.2,29.81,NNW,347,0.0,0.0,88,0.00,,,-99.99,1.0,HOBO +U30 +Weather +,2013-02-06 10:50:00,
2013-02-06 02:55:00,44.2,41.1,29.81,NNW,341,0.0,0.0,88,0.00,,,-99.99,1.0,HOBO +U30 +Weather +,2013-02-06 10:55:00,
2013-02-06 03:00:00,44.5,41.6,29.81,WNW,298,0.0,0.0,89,0.00,,,-99.99,1.0,HOBO +U30 +Weather +,2013-02-06 11:00:00,
2013-02-06 03:05:00,44.6,41.7,29.81,WNW,298,0.0,0.0,89,0.00,,,-99.99,1.0,HOBO +U30 +Weather +,2013-02-06 11:05:00,
2013-02-06 03:10:00,45.2,42.1,29.82,WNW,298,0.0,0.0,88,0.00,,,-99.99,1.0,HOBO +U30 +Weather +,2013-02-06 11:10:00,
2013-02-06 03:15:00,45.1,41.6,29.81,WNW,298,0.0,0.0,87,0.00,,,-99.99,1.0,HOBO +U30 +Weather +,2013-02-06 11:15:00,
2013-02-06 03:20:00,44.9,41.2,29.82,WNW,300,0.0,1.1,86,0.00,,,-99.99,1.0,HOBO +U30 +Weather +,2013-02-06 11:20:00,
2013-02-06 03:25:00,44.7,41.0,29.82,NW,320,0.0,0.0,86,0.00,,,-99.99,1.0,HOBO +U30 +Weather +,2013-02-06 11:25:00,
2013-02-06 03:30:00,44.6,40.9,29.82,NW,320,0.0,0.7,86,0.00,,,-99.99,1.0,HOBO +U30 +Weather +,2013-02-06 11:30:00,
2013-02-06 03:35:00,45.0,41.4,29.81,NNW,329,0.0,2.9,87,0.00,,,-99.99,1.0,HOBO +U30 +Weather +,2013-02-06 11:35:00,
2013-02-06 03:40:00,45.6,41.5,29.82,NE,34,0.0,2.9,85,0.00,,,-99.99,1.0,HOBO +U30 +Weather +,2013-02-06 11:40:00,
2013-02-06 03:45:00,44.8,40.5,29.82,NE,39,0.0,0.7,84,0.00,,,-99.99,1.0,HOBO +U30 +Weather +,2013-02-06 11:45:00,
2013-02-06 03:50:00,44.1,40.2,29.82,East,88,0.0,0.0,86,0.00,,,-99.99,1.0,HOBO +U30 +Weather +,2013-02-06 11:50:00,
2013-02-06 03:55:00,44.1,40.4,29.82,East,97,0.0,0.0,86,0.00,,,-99.99,1.0,HOBO +U30 +Weather +,2013-02-06 11:55:00,
2013-02-06 04:00:00,44.3,40.9,29.82,East,97,0.0,0.0,87,0.00,,,-99.99,1.0,HOBO +U30 +Weather +,2013-02-06 12:00:00,
2013-02-06 04:05:00,44.4,41.1,29.82,East,97,0.0,0.0,87,0.00,,,-99.99,1.0,HOBO +U30 +Weather +,2013-02-06 12:05:00,
2013-02-06 04:10:00,44.5,41.1,29.82,East,87,0.0,0.0,87,0.00,,,-99.99,1.0,HOBO +U30 +Weather +,2013-02-06 12:10:00,
2013-02-06 04:15:00,44.0,40.5,29.82,East,83,0.0,0.0,87,0.00,,,-99.99,1.0,HOBO +U30 +Weather +,2013-02-06 12:15:00,
2013-02-06 04:20:00,44.1,40.9,29.82,East,83,0.0,0.0,88,0.00,,,-99.99,1.0,HOBO +U30 +Weather +,2013-02-06 12:20:00,
2013-02-06 04:25:00,44.6,41.3,29.82,East,83,0.0,0.0,88,0.00,,,-99.99,1.0,HOBO +U30 +Weather +,2013-02-06 12:25:00,
2013-02-06 04:30:00,45.2,41.8,29.83,East,83,0.0,0.0,87,0.00,,,-99.99,1.0,HOBO +U30 +Weather +,2013-02-06 12:30:00,
2013-02-06 04:35:00,44.8,41.0,29.82,ENE,74,0.0,1.1,86,0.00,,,-99.99,1.0,HOBO +U30 +Weather +,2013-02-06 12:35:00,
2013-02-06 04:40:00,44.8,41.3,29.83,ENE,65,0.0,0.0,87,0.00,,,-99.99,1.0,HOBO +U30 +Weather +,2013-02-06 12:40:00,
2013-02-06 04:45:00,44.7,41.3,29.83,ENE,65,0.0,0.0,87,0.00,,,-99.99,1.0,HOBO +U30 +Weather +,2013-02-06 12:45:00,
2013-02-06 04:50:00,44.4,41.2,29.82,NE,52,0.0,0.7,88,0.00,,,-99.99,1.0,HOBO +U30 +Weather +,2013-02-06 12:50:00,
2013-02-06 04:55:00,44.1,41.0,29.82,NE,46,0.0,0.0,88,0.00,,,-99.99,1.0,HOBO +U30 +Weather +,2013-02-06 12:55:00,
2013-02-06 05:00:00,44.2,41.3,29.83,NE,46,0.0,0.0,89,0.00,,,-99.99,1.0,HOBO +U30 +Weather +,2013-02-06 13:00:00,
2013-02-06 05:05:00,44.4,42.0,29.83,NE,46,0.0,1.1,90,0.00,,,-99.99,1.0,HOBO +U30 +Weather +,2013-02-06 13:05:00,
2013-02-06 05:10:00,44.2,41.9,29.83,NE,46,0.0,0.7,91,0.00,,,-99.99,1.0,HOBO +U30 +Weather +,2013-02-06 13:10:00,
2013-02-06 05:15:00,44.2,42.1,29.83,NE,46,0.0,0.0,92,0.00,,,-99.99,1.0,HOBO +U30 +Weather +,2013-02-06 13:15:00,
2013-02-06 05:20:00,44.0,41.9,29.83,SE,145,0.0,1.8,92,0.00,,,-99.99,1.0,HOBO +U30 +Weather +,2013-02-06 13:20:00,
2013-02-06 05:25:00,43.8,41.6,29.83,SSE,164,0.0,0.7,91,0.00,,,-99.99,1.0,HOBO +U30 +Weather +,2013-02-06 13:25:00,
2013-02-06 05:30:00,43.9,41.7,29.82,SSE,164,0.0,1.8,92,0.00,,,-99.99,1.0,HOBO +U30 +Weather +,2013-02-06 13:30:00,
2013-02-06 05:35:00,43.9,41.9,29.83,SSE,168,0.0,1.8,92,0.00,,,-99.99,1.0,HOBO +U30 +Weather +,2013-02-06 13:35:00,
2013-02-06 05:40:00,43.8,41.7,29.83,South,170,0.0,1.1,92,0.00,,,-99.99,1.0,HOBO +U30 +Weather +,2013-02-06 13:40:00,
2013-02-06 05:45:00,43.9,41.9,29.83,South,170,0.0,1.8,92,0.00,,,-99.99,1.0,HOBO +U30 +Weather +,2013-02-06 13:45:00,
2013-02-06 05:50:00,43.8,41.9,29.83,South,170,0.0,1.1,92,0.00,,,-99.99,1.0,HOBO +U30 +Weather +,2013-02-06 13:50:00,
2013-02-06 05:55:00,43.5,41.6,29.83,South,170,0.0,0.7,92,0.00,,,-99.99,1.0,HOBO +U30 +Weather +,2013-02-06 13:55:00,
2013-02-06 06:00:00,43.4,41.6,29.83,South,170,0.0,0.0,93,0.00,,,-99.99,1.0,HOBO +U30 +Weather +,2013-02-06 14:00:00,
2013-02-06 06:05:00,43.6,41.9,29.83,South,170,0.0,0.0,93,0.00,,,-99.99,1.0,HOBO +U30 +Weather +,2013-02-06 14:05:00,
2013-02-06 06:10:00,43.5,41.8,29.83,South,170,0.0,0.0,93,0.00,,,-99.99,1.0,HOBO +U30 +Weather +,2013-02-06 14:10:00,
2013-02-06 06:15:00,43.3,41.5,29.83,South,170,0.0,0.0,93,0.00,,,-99.99,1.0,HOBO +U30 +Weather +,2013-02-06 14:15:00,
2013-02-06 06:20:00,43.6,42.0,29.84,South,170,0.0,0.0,93,0.00,,,-99.99,1.0,HOBO +U30 +Weather +,2013-02-06 14:20:00,
2013-02-06 06:25:00,43.7,42.1,29.84,South,170,0.0,0.0,94,0.00,,,-99.99,1.0,HOBO +U30 +Weather +,2013-02-06 14:25:00,
2013-02-06 06:30:00,43.4,41.8,29.84,South,170,0.0,0.0,94,0.00,,,-99.99,1.0,HOBO +U30 +Weather +,2013-02-06 14:30:00,
2013-02-06 06:35:00,43.8,42.3,29.84,South,170,0.0,0.0,94,0.00,,,-99.99,1.0,HOBO +U30 +Weather +,2013-02-06 14:35:00,
2013-02-06 06:40:00,43.9,42.4,29.84,South,170,0.0,0.0,94,0.00,,,-99.99,1.0,HOBO +U30 +Weather +,2013-02-06 14:40:00,
2013-02-06 06:45:00,43.8,42.3,29.84,SSE,168,0.0,0.0,94,0.00,,,-99.99,1.0,HOBO +U30 +Weather +,2013-02-06 14:45:00,
2013-02-06 06:50:00,43.7,42.2,29.83,SSE,168,0.0,0.0,94,0.00,,,-99.99,1.0,HOBO +U30 +Weather +,2013-02-06 14:50:00,
2013-02-06 06:55:00,43.4,41.8,29.84,SSE,168,0.0,0.0,94,0.00,,,-99.99,1.0,HOBO +U30 +Weather +,2013-02-06 14:55:00,
2013-02-06 07:00:00,44.0,42.6,29.83,SSE,168,0.0,0.0,94,0.00,,,-99.99,2.0,HOBO +U30 +Weather +,2013-02-06 15:00:00,
2013-02-06 07:05:00,44.2,42.7,29.83,SSE,168,0.0,0.0,94,0.00,,,-99.99,3.0,HOBO +U30 +Weather +,2013-02-06 15:05:00,
2013-02-06 07:10:00,44.1,42.6,29.84,SSE,168,0.0,0.0,94,0.00,,,-99.99,6.0,HOBO +U30 +Weather +,2013-02-06 15:10:00,
2013-02-06 07:15:00,44.2,42.6,29.84,SSE,168,0.0,0.0,94,0.00,,,-99.99,9.0,HOBO +U30 +Weather +,2013-02-06 15:15:00,
2013-02-06 07:20:00,44.1,42.6,29.84,SSE,168,0.0,0.0,94,0.00,,,-99.99,13.0,HOBO +U30 +Weather +,2013-02-06 15:20:00,
2013-02-06 07:25:00,44.0,42.5,29.84,SSE,168,0.0,0.0,94,0.00,,,-99.99,16.0,HOBO +U30 +Weather +,2013-02-06 15:25:00,
2013-02-06 07:30:00,43.9,42.4,29.84,SSE,168,0.0,0.0,94,0.00,,,-99.99,19.0,HOBO +U30 +Weather +,2013-02-06 15:30:00,
2013-02-06 07:35:00,44.0,42.7,29.84,SSE,167,0.0,0.0,94,0.00,,,-99.99,23.0,HOBO +U30 +Weather +,2013-02-06 15:35:00,
2013-02-06 07:40:00,44.3,43.1,29.84,SSE,161,0.0,0.0,95,0.00,,,-99.99,27.0,HOBO +U30 +Weather +,2013-02-06 15:40:00,
2013-02-06 07:45:00,44.0,42.7,29.85,SSE,161,0.0,0.0,95,0.00,,,-99.99,29.0,HOBO +U30 +Weather +,2013-02-06 15:45:00,
2013-02-06 07:50:00,44.2,42.8,29.85,SSE,161,0.0,0.0,95,0.00,,,-99.99,33.0,HOBO +U30 +Weather +,2013-02-06 15:50:00,
2013-02-06 07:55:00,44.6,43.4,29.85,SE,138,0.0,0.0,95,0.00,,,-99.99,103.0,HOBO +U30 +Weather +,2013-02-06 15:55:00,
2013-02-06 08:00:00,45.0,43.8,29.85,East,94,0.0,0.7,95,0.00,,,-99.99,117.0,HOBO +U30 +Weather +,2013-02-06 16:00:00,
2013-02-06 08:05:00,45.2,43.9,29.85,ENE,60,0.0,1.1,95,0.00,,,-99.99,127.0,HOBO +U30 +Weather +,2013-02-06 16:05:00,
2013-02-06 08:10:00,45.4,44.0,29.85,NE,46,0.0,1.1,95,0.00,,,-99.99,139.0,HOBO +U30 +Weather +,2013-02-06 16:10:00,
2013-02-06 08:15:00,45.5,44.1,29.85,NE,46,0.0,1.1,94,0.00,,,-99.99,152.0,HOBO +U30 +Weather +,2013-02-06 16:15:00,
2013-02-06 08:20:00,45.7,44.2,29.86,NE,45,0.0,1.1,94,0.00,,,-99.99,164.0,HOBO +U30 +Weather +,2013-02-06 16:20:00,
2013-02-06 08:25:00,46.2,44.7,29.86,NE,45,0.0,1.1,94,0.00,,,-99.99,177.0,HOBO +U30 +Weather +,2013-02-06 16:25:00,
2013-02-06 08:30:00,47.1,45.2,29.85,NE,45,0.0,1.1,93,0.00,,,-99.99,188.0,HOBO +U30 +Weather +,2013-02-06 16:30:00,
2013-02-06 08:35:00,47.3,45.0,29.85,NE,41,0.7,2.2,91,0.00,,,-99.99,202.0,HOBO +U30 +Weather +,2013-02-06 16:35:00,
2013-02-06 08:40:00,47.8,45.4,29.85,NE,38,0.0,1.8,91,0.00,,,-99.99,214.0,HOBO +U30 +Weather +,2013-02-06 16:40:00,
2013-02-06 08:45:00,47.8,45.2,29.85,NNE,25,0.7,2.9,90,0.00,,,-99.99,227.0,HOBO +U30 +Weather +,2013-02-06 16:45:00,
2013-02-06 08:50:00,48.2,45.5,29.86,NNE,24,0.0,2.2,90,0.00,,,-99.99,239.0,HOBO +U30 +Weather +,2013-02-06 16:50:00,
2013-02-06 08:55:00,48.5,45.7,29.86,NNE,24,0.0,2.2,89,0.00,,,-99.99,251.0,HOBO +U30 +Weather +,2013-02-06 16:55:00,
2013-02-06 09:00:00,48.9,45.9,29.86,NNE,22,0.7,1.8,89,0.00,,,-99.99,266.0,HOBO +U30 +Weather +,2013-02-06 17:00:00,
2013-02-06 09:05:00,50.2,47.0,29.86,NNE,28,0.0,2.2,88,0.00,,,-99.99,279.0,HOBO +U30 +Weather +,2013-02-06 17:05:00,
2013-02-06 09:10:00,52.2,47.8,29.86,SSE,147,0.7,3.4,85,0.00,,,-99.99,288.0,HOBO +U30 +Weather +,2013-02-06 17:10:00,
2013-02-06 09:15:00,52.0,46.7,29.86,ESE,104,0.7,4.5,82,0.00,,,-99.99,303.0,HOBO +U30 +Weather +,2013-02-06 17:15:00,
2013-02-06 09:20:00,51.9,46.4,29.86,SE,138,1.8,5.6,81,0.00,,,-99.99,312.0,HOBO +U30 +Weather +,2013-02-06 17:20:00,
2013-02-06 09:25:00,52.2,46.4,29.86,SSE,150,1.1,4.5,80,0.00,,,-99.99,324.0,HOBO +U30 +Weather +,2013-02-06 17:25:00,
2013-02-06 09:30:00,52.4,46.4,29.86,SE,138,0.7,3.4,79,0.00,,,-99.99,334.0,HOBO +U30 +Weather +,2013-02-06 17:30:00,
2013-02-06 09:35:00,52.6,46.4,29.86,SSE,160,1.1,5.1,79,0.00,,,-99.99,344.0,HOBO +U30 +Weather +,2013-02-06 17:35:00,
2013-02-06 09:40:00,53.4,47.1,29.86,SE,143,1.1,4.0,79,0.00,,,-99.99,357.0,HOBO +U30 +Weather +,2013-02-06 17:40:00,
2013-02-06 09:45:00,52.1,45.6,29.86,SSE,168,2.9,6.7,78,0.00,,,-99.99,367.0,HOBO +U30 +Weather +,2013-02-06 17:45:00,
2013-02-06 09:50:00,52.6,46.6,29.87,SSW,195,1.8,4.0,79,0.00,,,-99.99,376.0,HOBO +U30 +Weather +,2013-02-06 17:50:00,
2013-02-06 09:55:00,54.2,47.8,29.87,SSE,152,0.0,1.8,78,0.00,,,-99.99,388.0,HOBO +U30 +Weather +,2013-02-06 17:55:00,
2013-02-06 10:00:00,53.0,45.6,29.87,South,173,0.7,3.4,76,0.00,,,-99.99,397.0,HOBO +U30 +Weather +,2013-02-06 18:00:00,
2013-02-06 10:05:00,54.3,47.0,29.86,South,175,0.0,2.2,76,0.00,,,-99.99,406.0,HOBO +U30 +Weather +,2013-02-06 18:05:00,
2013-02-06 10:10:00,55.6,48.1,29.87,SSE,164,0.0,1.8,75,0.00,,,-99.99,414.0,HOBO +U30 +Weather +,2013-02-06 18:10:00,
2013-02-06 10:15:00,55.0,47.3,29.87,SE,124,0.0,4.0,75,0.00,,,-99.99,422.0,HOBO +U30 +Weather +,2013-02-06 18:15:00,
2013-02-06 10:20:00,54.2,47.1,29.87,NW,309,0.7,4.5,76,0.00,,,-99.99,433.0,HOBO +U30 +Weather +,2013-02-06 18:20:00,
2013-02-06 10:25:00,54.4,47.4,29.87,NNW,334,0.7,4.5,77,0.00,,,-99.99,438.0,HOBO +U30 +Weather +,2013-02-06 18:25:00,
2013-02-06 10:30:00,54.3,47.4,29.87,NW,317,0.7,4.5,77,0.00,,,-99.99,444.0,HOBO +U30 +Weather +,2013-02-06 18:30:00,
2013-02-06 10:35:00,54.6,47.4,29.87,NNW,334,0.7,3.4,76,0.00,,,-99.99,452.0,HOBO +U30 +Weather +,2013-02-06 18:35:00,
2013-02-06 10:40:00,53.9,46.9,29.87,NNW,341,0.7,4.0,76,0.00,,,-99.99,463.0,HOBO +U30 +Weather +,2013-02-06 18:40:00,
2013-02-06 10:45:00,53.2,46.5,29.87,North,351,1.1,4.5,77,0.00,,,-99.99,469.0,HOBO +U30 +Weather +,2013-02-06 18:45:00,
2013-02-06 10:50:00,54.2,47.6,29.87,NNW,330,0.7,2.9,78,0.00,,,-99.99,473.0,HOBO +U30 +Weather +,2013-02-06 18:50:00,
2013-02-06 10:55:00,54.6,47.3,29.87,NW,326,0.7,4.0,76,0.00,,,-99.99,471.0,HOBO +U30 +Weather +,2013-02-06 18:55:00,
2013-02-06 11:00:00,55.2,47.8,29.87,North,355,0.7,3.4,76,0.00,,,-99.99,476.0,HOBO +U30 +Weather +,2013-02-06 19:00:00,
2013-02-06 11:05:00,55.9,48.2,29.86,NW,324,0.7,4.0,75,0.00,,,-99.99,487.0,HOBO +U30 +Weather +,2013-02-06 19:05:00,
2013-02-06 11:10:00,56.6,48.0,29.86,WSW,258,0.7,3.4,72,0.00,,,-99.99,493.0,HOBO +U30 +Weather +,2013-02-06 19:10:00,
2013-02-06 11:15:00,54.1,44.9,29.86,SW,220,3.4,7.4,71,0.00,,,-99.99,499.0,HOBO +U30 +Weather +,2013-02-06 19:15:00,
2013-02-06 11:20:00,54.0,45.4,29.86,SW,227,4.0,7.4,72,0.00,,,-99.99,504.0,HOBO +U30 +Weather +,2013-02-06 19:20:00,
2013-02-06 11:25:00,54.8,45.4,29.86,SW,234,2.9,7.8,70,0.00,,,-99.99,517.0,HOBO +U30 +Weather +,2013-02-06 19:25:00,
2013-02-06 11:30:00,55.9,45.3,29.86,SW,229,1.8,6.3,67,0.00,,,-99.99,521.0,HOBO +U30 +Weather +,2013-02-06 19:30:00,
2013-02-06 11:35:00,57.5,46.1,29.85,West,265,1.8,4.5,65,0.00,,,-99.99,523.0,HOBO +U30 +Weather +,2013-02-06 19:35:00,
2013-02-06 11:40:00,55.6,43.1,29.85,WSW,248,3.4,7.8,62,0.00,,,-99.99,531.0,HOBO +U30 +Weather +,2013-02-06 19:40:00,
2013-02-06 11:45:00,55.0,42.7,29.85,WSW,237,3.4,7.4,63,0.00,,,-99.99,529.0,HOBO +U30 +Weather +,2013-02-06 19:45:00,
2013-02-06 11:50:00,57.0,44.7,29.85,SW,234,2.9,6.7,63,0.00,,,-99.99,532.0,HOBO +U30 +Weather +,2013-02-06 19:50:00,
2013-02-06 11:55:00,55.7,42.3,29.85,WSW,244,3.4,10.1,60,0.00,,,-99.99,533.0,HOBO +U30 +Weather +,2013-02-06 19:55:00,
2013-02-06 12:00:00,56.6,43.3,29.85,WSW,250,2.9,6.7,61,0.00,,,-99.99,533.0,HOBO +U30 +Weather +,2013-02-06 20:00:00,
2013-02-06 12:05:00,56.2,43.2,29.85,SW,226,4.0,9.6,61,0.00,,,-99.99,533.0,HOBO +U30 +Weather +,2013-02-06 20:05:00,
2013-02-06 12:10:00,56.1,42.9,29.85,WSW,243,4.0,8.5,61,0.00,,,-99.99,536.0,HOBO +U30 +Weather +,2013-02-06 20:10:00,
2013-02-06 12:15:00,56.8,42.9,29.85,SW,227,3.4,7.8,59,0.00,,,-99.99,534.0,HOBO +U30 +Weather +,2013-02-06 20:15:00,
2013-02-06 12:20:00,56.6,42.6,29.85,SW,229,4.0,8.5,59,0.00,,,-99.99,536.0,HOBO +U30 +Weather +,2013-02-06 20:20:00,
2013-02-06 12:25:00,56.9,43.3,29.84,SW,220,4.0,8.5,60,0.00,,,-99.99,537.0,HOBO +U30 +Weather +,2013-02-06 20:25:00,
2013-02-06 12:30:00,55.9,42.6,29.84,SW,229,4.5,10.7,61,0.00,,,-99.99,532.0,HOBO +U30 +Weather +,2013-02-06 20:30:00,
2013-02-06 12:35:00,56.0,43.8,29.84,SW,229,5.1,9.6,63,0.00,,,-99.99,534.0,HOBO +U30 +Weather +,2013-02-06 20:35:00,
2013-02-06 12:40:00,54.8,43.5,29.84,SW,229,5.1,8.9,65,0.00,,,-99.99,531.0,HOBO +U30 +Weather +,2013-02-06 20:40:00,
2013-02-06 12:45:00,56.3,45.2,29.83,SW,236,4.0,9.6,66,0.00,,,-99.99,533.0,HOBO +U30 +Weather +,2013-02-06 20:45:00,
2013-02-06 12:50:00,55.6,44.5,29.83,SW,226,4.5,8.5,66,0.00,,,-99.99,529.0,HOBO +U30 +Weather +,2013-02-06 20:50:00,
2013-02-06 12:55:00,57.1,46.1,29.83,SW,220,4.5,9.6,66,0.00,,,-99.99,529.0,HOBO +U30 +Weather +,2013-02-06 20:55:00,
2013-02-06 13:00:00,57.4,45.7,29.83,SW,223,3.4,7.8,64,0.00,,,-99.99,523.0,HOBO +U30 +Weather +,2013-02-06 21:00:00,
2013-02-06 13:05:00,57.0,45.2,29.83,SW,219,4.5,8.9,64,0.00,,,-99.99,519.0,HOBO +U30 +Weather +,2013-02-06 21:05:00,
2013-02-06 13:10:00,56.1,44.7,29.83,SW,227,5.1,10.1,65,0.00,,,-99.99,519.0,HOBO +U30 +Weather +,2013-02-06 21:10:00,
2013-02-06 13:15:00,56.1,45.4,29.82,SW,218,6.7,12.3,67,0.00,,,-99.99,517.0,HOBO +U30 +Weather +,2013-02-06 21:15:00,
2013-02-06 13:20:00,56.5,45.9,29.82,SW,227,5.6,10.7,67,0.00,,,-99.99,513.0,HOBO +U30 +Weather +,2013-02-06 21:20:00,
2013-02-06 13:25:00,55.5,46.0,29.82,SW,226,6.7,12.3,70,0.00,,,-99.99,503.0,HOBO +U30 +Weather +,2013-02-06 21:25:00,
2013-02-06 13:30:00,56.0,46.5,29.82,SW,236,6.3,12.3,70,0.00,,,-99.99,506.0,HOBO +U30 +Weather +,2013-02-06 21:30:00,
2013-02-06 13:35:00,54.6,45.5,29.82,SW,232,7.8,11.9,71,0.00,,,-99.99,502.0,HOBO +U30 +Weather +,2013-02-06 21:35:00,
2013-02-06 13:40:00,56.9,48.3,29.82,SW,230,5.1,10.7,72,0.00,,,-99.99,497.0,HOBO +U30 +Weather +,2013-02-06 21:40:00,
2013-02-06 13:45:00,56.5,47.3,29.82,WSW,239,4.5,8.9,71,0.00,,,-99.99,488.0,HOBO +U30 +Weather +,2013-02-06 21:45:00,
2013-02-06 13:50:00,55.1,47.1,29.81,WSW,237,6.3,12.3,74,0.00,,,-99.99,484.0,HOBO +U30 +Weather +,2013-02-06 21:50:00,
2013-02-06 13:55:00,55.1,47.3,29.81,SW,234,6.3,12.3,74,0.00,,,-99.99,477.0,HOBO +U30 +Weather +,2013-02-06 21:55:00,
2013-02-06 14:00:00,55.2,47.7,29.81,SW,232,6.7,11.2,75,0.00,,,-99.99,472.0,HOBO +U30 +Weather +,2013-02-06 22:00:00,
2013-02-06 14:05:00,55.6,48.0,29.81,WSW,241,4.5,10.1,75,0.00,,,-99.99,462.0,HOBO +U30 +Weather +,2013-02-06 22:05:00,
2013-02-06 14:10:00,55.7,48.4,29.81,WSW,237,5.1,11.2,76,0.00,,,-99.99,454.0,HOBO +U30 +Weather +,2013-02-06 22:10:00,
2013-02-06 14:15:00,56.0,48.3,29.81,SW,230,4.5,8.5,75,0.00,,,-99.99,449.0,HOBO +U30 +Weather +,2013-02-06 22:15:00,
2013-02-06 14:20:00,56.2,48.3,29.80,SW,229,4.5,10.7,74,0.00,,,-99.99,439.0,HOBO +U30 +Weather +,2013-02-06 22:20:00,
2013-02-06 14:25:00,56.7,49.1,29.80,SW,229,4.5,10.7,75,0.00,,,-99.99,431.0,HOBO +U30 +Weather +,2013-02-06 22:25:00,
2013-02-06 14:30:00,56.0,48.6,29.80,WSW,239,4.5,11.2,76,0.00,,,-99.99,428.0,HOBO +U30 +Weather +,2013-02-06 22:30:00,
2013-02-06 14:35:00,55.3,47.9,29.80,SW,226,5.1,12.3,75,0.00,,,-99.99,416.0,HOBO +U30 +Weather +,2013-02-06 22:35:00,
2013-02-06 14:40:00,55.6,48.4,29.81,SW,229,5.1,10.7,76,0.00,,,-99.99,406.0,HOBO +U30 +Weather +,2013-02-06 22:40:00,
2013-02-06 14:45:00,55.5,48.5,29.81,WSW,241,5.1,8.5,77,0.00,,,-99.99,393.0,HOBO +U30 +Weather +,2013-02-06 22:45:00,
2013-02-06 14:50:00,55.1,48.2,29.81,WSW,248,5.1,10.1,77,0.00,,,-99.99,386.0,HOBO +U30 +Weather +,2013-02-06 22:50:00,
2013-02-06 14:55:00,54.3,47.7,29.81,WSW,251,5.1,11.2,78,0.00,,,-99.99,376.0,HOBO +U30 +Weather +,2013-02-06 22:55:00,
2013-02-06 15:00:00,54.7,47.9,29.80,WSW,251,4.0,10.7,77,0.00,,,-99.99,359.0,HOBO +U30 +Weather +,2013-02-06 23:00:00,
2013-02-06 15:05:00,54.3,47.3,29.80,WSW,250,5.1,10.7,77,0.00,,,-99.99,351.0,HOBO +U30 +Weather +,2013-02-06 23:05:00,
2013-02-06 15:10:00,54.3,47.4,29.80,SW,236,7.4,16.3,77,0.00,,,-99.99,338.0,HOBO +U30 +Weather +,2013-02-06 23:10:00,
2013-02-06 15:15:00,54.1,47.0,29.80,SW,234,7.4,15.2,76,0.00,,,-99.99,329.0,HOBO +U30 +Weather +,2013-02-06 23:15:00,
2013-02-06 15:20:00,53.7,46.8,29.81,WSW,247,6.3,13.4,77,0.00,,,-99.99,321.0,HOBO +U30 +Weather +,2013-02-06 23:20:00,
2013-02-06 15:25:00,53.9,47.1,29.80,WSW,246,6.3,11.9,77,0.00,,,-99.99,311.0,HOBO +U30 +Weather +,2013-02-06 23:25:00,
2013-02-06 15:30:00,53.8,47.2,29.80,WSW,248,5.6,13.0,78,0.00,,,-99.99,298.0,HOBO +U30 +Weather +,2013-02-06 23:30:00,
2013-02-06 15:35:00,53.7,47.0,29.80,WSW,253,5.6,11.2,78,0.00,,,-99.99,291.0,HOBO +U30 +Weather +,2013-02-06 23:35:00,
2013-02-06 15:40:00,53.5,46.8,29.80,WSW,248,5.1,11.9,78,0.00,,,-99.99,276.0,HOBO +U30 +Weather +,2013-02-06 23:40:00,
2013-02-06 15:45:00,53.7,47.3,29.80,WSW,246,5.6,11.2,78,0.00,,,-99.99,262.0,HOBO +U30 +Weather +,2013-02-06 23:45:00,
2013-02-06 15:50:00,53.7,47.3,29.81,WSW,241,5.6,11.2,78,0.00,,,-99.99,249.0,HOBO +U30 +Weather +,2013-02-06 23:50:00,
2013-02-06 15:55:00,53.5,47.4,29.81,WSW,254,5.1,9.6,79,0.00,,,-99.99,238.0,HOBO +U30 +Weather +,2013-02-06 23:55:00,
2013-02-06 16:00:00,53.9,47.6,29.81,WSW,254,3.4,7.8,78,0.00,,,-99.99,227.0,HOBO +U30 +Weather +,2013-02-07 00:00:00,
2013-02-06 16:05:00,52.5,46.5,29.81,WSW,247,5.6,12.3,79,0.00,,,-99.99,214.0,HOBO +U30 +Weather +,2013-02-07 00:05:00,
2013-02-06 16:10:00,52.4,46.9,29.80,WSW,251,5.1,11.2,81,0.00,,,-99.99,203.0,HOBO +U30 +Weather +,2013-02-07 00:10:00,
2013-02-06 16:15:00,52.6,47.2,29.81,WSW,243,5.1,13.0,81,0.00,,,-99.99,191.0,HOBO +U30 +Weather +,2013-02-07 00:15:00,
2013-02-06 16:20:00,52.0,47.0,29.81,WSW,247,6.3,11.9,82,0.00,,,-99.99,181.0,HOBO +U30 +Weather +,2013-02-07 00:20:00,
2013-02-06 16:25:00,52.1,47.2,29.81,WSW,251,5.1,11.9,83,0.00,,,-99.99,167.0,HOBO +U30 +Weather +,2013-02-07 00:25:00,
2013-02-06 16:30:00,51.9,46.9,29.81,WSW,251,5.1,11.2,83,0.00,,,-99.99,156.0,HOBO +U30 +Weather +,2013-02-07 00:30:00,
2013-02-06 16:35:00,51.5,46.9,29.81,WSW,254,6.3,13.0,84,0.00,,,-99.99,142.0,HOBO +U30 +Weather +,2013-02-07 00:35:00,
2013-02-06 16:40:00,52.0,47.2,29.81,WSW,248,5.6,13.0,83,0.00,,,-99.99,131.0,HOBO +U30 +Weather +,2013-02-07 00:40:00,
2013-02-06 16:45:00,51.5,46.8,29.81,WSW,254,5.6,11.2,84,0.00,,,-99.99,118.0,HOBO +U30 +Weather +,2013-02-07 00:45:00,
2013-02-06 16:50:00,51.2,46.8,29.81,WSW,253,5.1,12.3,84,0.00,,,-99.99,102.0,HOBO +U30 +Weather +,2013-02-07 00:50:00,
2013-02-06 16:55:00,51.3,46.9,29.81,WSW,244,4.5,11.9,84,0.00,,,-99.99,82.0,HOBO +U30 +Weather +,2013-02-07 00:55:00,
2013-02-06 17:00:00,51.1,46.7,29.81,WSW,246,4.0,12.3,84,0.00,,,-99.99,67.0,HOBO +U30 +Weather +,2013-02-07 01:00:00,
2013-02-06 17:05:00,50.6,46.4,29.81,WSW,254,4.0,8.5,85,0.00,,,-99.99,53.0,HOBO +U30 +Weather +,2013-02-07 01:05:00,
2013-02-06 17:10:00,50.7,46.6,29.81,WSW,246,3.4,7.4,85,0.00,,,-99.99,41.0,HOBO +U30 +Weather +,2013-02-07 01:10:00,
2013-02-06 17:15:00,50.3,46.3,29.81,WSW,243,3.4,7.8,86,0.00,,,-99.99,29.0,HOBO +U30 +Weather +,2013-02-07 01:15:00,
2013-02-06 17:20:00,50.1,46.3,29.81,SW,232,4.0,11.2,86,0.00,,,-99.99,23.0,HOBO +U30 +Weather +,2013-02-07 01:20:00,
2013-02-06 17:25:00,49.8,46.2,29.81,WSW,244,4.5,11.2,87,0.00,,,-99.99,17.0,HOBO +U30 +Weather +,2013-02-07 01:25:00,
2013-02-06 17:30:00,49.3,45.9,29.81,WSW,241,4.5,11.2,87,0.00,,,-99.99,9.0,HOBO +U30 +Weather +,2013-02-07 01:30:00,
2013-02-06 17:35:00,49.2,46.0,29.81,WSW,237,4.0,10.1,88,0.00,,,-99.99,7.0,HOBO +U30 +Weather +,2013-02-07 01:35:00,
2013-02-06 17:40:00,48.9,45.9,29.81,WSW,251,2.2,10.7,89,0.00,,,-99.99,3.0,HOBO +U30 +Weather +,2013-02-07 01:40:00,
2013-02-06 17:45:00,48.9,46.0,29.81,WSW,250,4.0,9.6,89,0.00,,,-99.99,2.0,HOBO +U30 +Weather +,2013-02-07 01:45:00,
2013-02-06 17:50:00,48.8,46.0,29.81,West,260,4.5,10.1,90,0.00,,,-99.99,1.0,HOBO +U30 +Weather +,2013-02-07 01:50:00,
2013-02-06 17:55:00,48.7,46.1,29.81,WSW,239,4.0,8.9,90,0.00,,,-99.99,1.0,HOBO +U30 +Weather +,2013-02-07 01:55:00,
2013-02-06 18:00:00,48.7,46.1,29.81,SW,236,5.1,12.3,90,0.00,,,-99.99,1.0,HOBO +U30 +Weather +,2013-02-07 02:00:00,
2013-02-06 18:05:00,48.7,46.1,29.82,SW,230,4.5,11.2,90,0.00,,,-99.99,1.0,HOBO +U30 +Weather +,2013-02-07 02:05:00,
2013-02-06 18:10:00,48.7,46.2,29.82,SW,229,6.3,11.2,91,0.00,,,-99.99,1.0,HOBO +U30 +Weather +,2013-02-07 02:10:00,
2013-02-06 18:15:00,48.6,46.2,29.82,SW,229,4.5,9.6,91,0.00,,,-99.99,1.0,HOBO +U30 +Weather +,2013-02-07 02:15:00,
2013-02-06 18:20:00,48.5,46.3,29.82,SW,233,4.5,11.2,91,0.00,,,-99.99,1.0,HOBO +U30 +Weather +,2013-02-07 02:20:00,
2013-02-06 18:25:00,48.5,46.3,29.82,SW,234,5.1,8.9,92,0.00,,,-99.99,1.0,HOBO +U30 +Weather +,2013-02-07 02:25:00,
2013-02-06 18:30:00,48.4,46.2,29.82,SW,229,4.5,11.2,92,0.00,,,-99.99,1.0,HOBO +U30 +Weather +,2013-02-07 02:30:00,
2013-02-06 18:35:00,48.3,46.2,29.83,WSW,241,2.9,6.7,92,0.00,,,-99.99,1.0,HOBO +U30 +Weather +,2013-02-07 02:35:00,
2013-02-06 18:40:00,48.3,46.2,29.83,SW,227,3.4,9.6,92,0.00,,,-99.99,1.0,HOBO +U30 +Weather +,2013-02-07 02:40:00,
2013-02-06 18:45:00,48.2,46.0,29.83,WSW,247,1.8,6.3,92,0.00,,,-99.99,1.0,HOBO +U30 +Weather +,2013-02-07 02:45:00,
2013-02-06 18:50:00,48.1,45.9,29.83,WSW,243,1.8,6.3,91,0.00,,,-99.99,1.0,HOBO +U30 +Weather +,2013-02-07 02:50:00,
2013-02-06 18:55:00,48.2,46.1,29.83,WSW,248,2.9,8.9,92,0.00,,,-99.99,1.0,HOBO +U30 +Weather +,2013-02-07 02:55:00,
2013-02-06 19:00:00,48.2,46.2,29.83,WSW,241,2.9,6.7,92,0.00,,,-99.99,1.0,HOBO +U30 +Weather +,2013-02-07 03:00:00,
2013-02-06 19:05:00,48.2,46.4,29.83,SW,229,2.9,6.7,93,0.00,,,-99.99,1.0,HOBO +U30 +Weather +,2013-02-07 03:05:00,
2013-02-06 19:10:00,48.2,46.6,29.83,SW,234,3.4,8.9,93,0.00,,,-99.99,1.0,HOBO +U30 +Weather +,2013-02-07 03:10:00,
2013-02-06 19:15:00,48.1,46.5,29.83,SW,220,2.2,5.6,94,0.00,,,-99.99,1.0,HOBO +U30 +Weather +,2013-02-07 03:15:00,
2013-02-06 19:20:00,48.2,46.7,29.83,SW,227,4.5,9.6,94,0.00,,,-99.99,1.0,HOBO +U30 +Weather +,2013-02-07 03:20:00,
2013-02-06 19:25:00,48.2,46.7,29.83,SW,230,5.1,10.7,94,0.00,,,-99.99,1.0,HOBO +U30 +Weather +,2013-02-07 03:25:00,
2013-02-06 19:30:00,48.2,46.6,29.83,SW,233,4.0,9.6,94,0.00,,,-99.99,1.0,HOBO +U30 +Weather +,2013-02-07 03:30:00,
2013-02-06 19:35:00,48.2,46.5,29.83,WSW,243,3.4,9.6,93,0.00,,,-99.99,1.0,HOBO +U30 +Weather +,2013-02-07 03:35:00,
2013-02-06 19:40:00,48.2,46.6,29.83,SW,230,4.5,9.6,94,0.00,,,-99.99,1.0,HOBO +U30 +Weather +,2013-02-07 03:40:00,
2013-02-06 19:45:00,48.2,46.6,29.83,SW,234,2.2,7.8,94,0.00,,,-99.99,1.0,HOBO +U30 +Weather +,2013-02-07 03:45:00,
2013-02-06 19:50:00,48.1,46.5,29.83,WSW,246,2.9,10.1,94,0.00,,,-99.99,1.0,HOBO +U30 +Weather +,2013-02-07 03:50:00,
2013-02-06 19:55:00,48.1,46.5,29.83,SW,233,5.1,11.2,94,0.00,,,-99.99,1.0,HOBO +U30 +Weather +,2013-02-07 03:55:00,
2013-02-06 20:00:00,48.1,46.5,29.83,SW,236,5.1,11.2,94,0.00,,,-99.99,1.0,HOBO +U30 +Weather +,2013-02-07 04:00:00,
2013-02-06 20:05:00,48.1,46.5,29.83,SW,233,6.3,15.2,94,0.00,,,-99.99,1.0,HOBO +U30 +Weather +,2013-02-07 04:05:00,
2013-02-06 20:10:00,48.1,46.6,29.83,WSW,241,5.6,10.7,94,0.00,,,-99.99,1.0,HOBO +U30 +Weather +,2013-02-07 04:10:00,
2013-02-06 20:15:00,48.1,46.5,29.83,SW,234,4.5,11.2,94,0.00,,,-99.99,1.0,HOBO +U30 +Weather +,2013-02-07 04:15:00,
2013-02-06 20:20:00,48.0,46.5,29.84,WSW,237,3.4,9.6,94,0.00,,,-99.99,1.0,HOBO +U30 +Weather +,2013-02-07 04:20:00,
2013-02-06 20:25:00,48.0,46.6,29.84,SW,226,3.4,10.1,94,0.00,,,-99.99,1.0,HOBO +U30 +Weather +,2013-02-07 04:25:00,
2013-02-06 20:30:00,47.9,46.5,29.84,West,271,2.9,11.2,94,0.00,,,-99.99,1.0,HOBO +U30 +Weather +,2013-02-07 04:30:00,
2013-02-06 20:35:00,47.7,46.3,29.84,West,267,2.9,11.9,94,0.00,,,-99.99,1.0,HOBO +U30 +Weather +,2013-02-07 04:35:00,
2013-02-06 20:40:00,47.6,46.1,29.84,West,263,2.2,8.5,94,0.00,,,-99.99,1.0,HOBO +U30 +Weather +,2013-02-07 04:40:00,
2013-02-06 20:45:00,47.6,46.0,29.85,WSW,254,2.9,7.8,94,0.00,,,-99.99,1.0,HOBO +U30 +Weather +,2013-02-07 04:45:00,
2013-02-06 20:50:00,47.6,46.0,29.84,SW,232,2.9,7.8,94,0.00,,,-99.99,1.0,HOBO +U30 +Weather +,2013-02-07 04:50:00,
2013-02-06 20:55:00,47.7,46.1,29.85,SW,234,4.0,11.2,94,0.00,,,-99.99,1.0,HOBO +U30 +Weather +,2013-02-07 04:55:00,
2013-02-06 21:00:00,47.8,46.1,29.85,SW,230,4.5,9.6,93,0.00,,,-99.99,1.0,HOBO +U30 +Weather +,2013-02-07 05:00:00,
2013-02-06 21:05:00,47.6,46.0,29.85,SW,230,2.9,6.7,93,0.00,,,-99.99,1.0,HOBO +U30 +Weather +,2013-02-07 05:05:00,
2013-02-06 21:10:00,47.6,45.9,29.85,SW,233,4.0,10.7,94,0.00,,,-99.99,1.0,HOBO +U30 +Weather +,2013-02-07 05:10:00,
2013-02-06 21:15:00,47.5,45.9,29.84,SW,229,2.9,6.3,94,0.00,,,-99.99,1.0,HOBO +U30 +Weather +,2013-02-07 05:15:00,
2013-02-06 21:20:00,47.4,45.9,29.84,SW,230,3.4,7.8,94,0.00,,,-99.99,1.0,HOBO +U30 +Weather +,2013-02-07 05:20:00,
2013-02-06 21:25:00,47.2,45.8,29.84,SW,229,2.9,6.3,94,0.00,,,-99.99,1.0,HOBO +U30 +Weather +,2013-02-07 05:25:00,
2013-02-06 21:30:00,47.3,45.9,29.84,SW,226,4.0,7.4,94,0.00,,,-99.99,1.0,HOBO +U30 +Weather +,2013-02-07 05:30:00,
2013-02-06 21:35:00,47.2,45.8,29.84,SW,232,4.0,9.6,94,0.00,,,-99.99,1.0,HOBO +U30 +Weather +,2013-02-07 05:35:00,
2013-02-06 21:40:00,47.2,45.8,29.84,SW,232,3.4,6.7,94,0.00,,,-99.99,1.0,HOBO +U30 +Weather +,2013-02-07 05:40:00,
2013-02-06 21:45:00,47.2,45.8,29.84,SW,227,4.0,7.4,94,0.00,,,-99.99,1.0,HOBO +U30 +Weather +,2013-02-07 05:45:00,
2013-02-06 21:50:00,47.3,45.9,29.84,SW,229,4.5,8.5,94,0.00,,,-99.99,1.0,HOBO +U30 +Weather +,2013-02-07 05:50:00,
2013-02-06 21:55:00,47.3,45.9,29.84,SW,229,4.5,7.8,94,0.00,,,-99.99,1.0,HOBO +U30 +Weather +,2013-02-07 05:55:00,
2013-02-06 22:00:00,47.3,45.9,29.84,SW,226,4.0,7.8,94,0.00,,,-99.99,1.0,HOBO +U30 +Weather +,2013-02-07 06:00:00,
2013-02-06 22:05:00,47.3,46.0,29.84,SW,227,3.4,6.3,95,0.00,,,-99.99,1.0,HOBO +U30 +Weather +,2013-02-07 06:05:00,
2013-02-06 22:10:00,47.3,46.0,29.84,SW,232,2.9,5.6,95,0.00,,,-99.99,1.0,HOBO +U30 +Weather +,2013-02-07 06:10:00,
2013-02-06 22:15:00,47.4,46.2,29.84,SW,229,3.4,6.3,95,0.00,,,-99.99,1.0,HOBO +U30 +Weather +,2013-02-07 06:15:00,
2013-02-06 22:20:00,47.2,46.1,29.84,SW,232,4.0,7.4,95,0.00,,,-99.99,1.0,HOBO +U30 +Weather +,2013-02-07 06:20:00,
2013-02-06 22:25:00,47.1,46.0,29.84,SW,229,4.5,7.8,95,0.00,,,-99.99,1.0,HOBO +U30 +Weather +,2013-02-07 06:25:00,
2013-02-06 22:30:00,47.0,46.0,29.84,SW,233,5.1,8.9,96,0.00,,,-99.99,1.0,HOBO +U30 +Weather +,2013-02-07 06:30:00,
2013-02-06 22:35:00,47.0,46.0,29.84,SW,236,4.0,6.7,96,0.00,,,-99.99,1.0,HOBO +U30 +Weather +,2013-02-07 06:35:00,
2013-02-06 22:40:00,46.8,45.8,29.84,SW,229,1.8,5.6,96,0.00,,,-99.99,1.0,HOBO +U30 +Weather +,2013-02-07 06:40:00,
2013-02-06 22:45:00,47.0,46.0,29.84,SW,225,4.0,9.6,96,0.00,,,-99.99,1.0,HOBO +U30 +Weather +,2013-02-07 06:45:00,
2013-02-06 22:50:00,46.9,45.9,29.84,SW,230,2.9,6.7,96,0.00,,,-99.99,1.0,HOBO +U30 +Weather +,2013-02-07 06:50:00,
2013-02-06 22:55:00,46.8,45.8,29.84,SW,225,1.1,4.0,96,0.00,,,-99.99,1.0,HOBO +U30 +Weather +,2013-02-07 06:55:00,
2013-02-06 23:00:00,46.8,45.9,29.84,SW,227,1.8,5.1,96,0.00,,,-99.99,1.0,HOBO +U30 +Weather +,2013-02-07 07:00:00,
2013-02-06 23:05:00,46.7,45.8,29.84,SW,222,0.7,4.5,96,0.00,,,-99.99,1.0,HOBO +U30 +Weather +,2013-02-07 07:05:00,
2013-02-06 23:10:00,46.7,45.8,29.84,SW,219,1.1,4.5,96,0.00,,,-99.99,1.0,HOBO +U30 +Weather +,2013-02-07 07:10:00,
2013-02-06 23:15:00,46.6,45.7,29.84,SW,216,1.1,4.0,96,0.00,,,-99.99,1.0,HOBO +U30 +Weather +,2013-02-07 07:15:00,
2013-02-06 23:20:00,46.7,45.8,29.84,SW,219,2.2,5.1,96,0.00,,,-99.99,1.0,HOBO +U30 +Weather +,2013-02-07 07:20:00,
2013-02-06 23:25:00,46.6,45.8,29.84,SW,222,2.2,4.5,96,0.00,,,-99.99,1.0,HOBO +U30 +Weather +,2013-02-07 07:25:00,
2013-02-06 23:30:00,46.7,45.9,29.84,SW,219,2.9,6.3,97,0.00,,,-99.99,1.0,HOBO +U30 +Weather +,2013-02-07 07:30:00,
2013-02-06 23:35:00,46.6,45.8,29.84,SW,218,2.9,5.6,97,0.00,,,-99.99,1.0,HOBO +U30 +Weather +,2013-02-07 07:35:00,
2013-02-06 23:40:00,46.5,45.8,29.84,SW,219,3.4,6.3,97,0.00,,,-99.99,1.0,HOBO +U30 +Weather +,2013-02-07 07:40:00,
2013-02-06 23:45:00,46.4,45.7,29.84,SW,219,3.4,6.3,97,0.00,,,-99.99,1.0,HOBO +U30 +Weather +,2013-02-07 07:45:00,
2013-02-06 23:50:00,46.3,45.7,29.84,SW,215,2.9,6.3,97,0.00,,,-99.99,1.0,HOBO +U30 +Weather +,2013-02-07 07:50:00,
2013-02-06 23:55:00,46.5,45.9,29.84,SW,219,2.9,6.7,97,0.00,,,-99.99,1.0,HOBO +U30 +Weather +,2013-02-07 07:55:00,